createdAt,value
2023-03-20T00:00:42.389Z,60.35
2023-03-20T00:03:44.387Z,60.10
2023-03-20T00:06:45.966Z,60.44
2023-03-20T00:09:48.464Z,60.60
2023-03-20T00:12:50.316Z,60.18
2023-03-20T00:15:52.079Z,60.25
2023-03-20T00:18:53.627Z,60.68
2023-03-20T00:21:55.719Z,60.21
2023-03-20T00:24:57.202Z,60.29
2023-03-20T00:27:58.702Z,60.15
2023-03-20T00:31:00.236Z,60.31
2023-03-20T00:34:10.175Z,60.21
2023-03-20T00:37:12.569Z,60.37
2023-03-20T00:40:14.973Z,60.45
2023-03-20T00:43:17.790Z,60.53
2023-03-20T00:46:20.836Z,60.52
2023-03-20T00:49:27.972Z,60.49
2023-03-20T00:52:29.851Z,60.39
2023-03-20T00:55:31.521Z,60.71
2023-03-20T00:58:33.019Z,60.66
2023-03-20T01:01:34.700Z,60.83
2023-03-20T01:04:39.003Z,60.84
2023-03-20T01:07:40.561Z,60.87
2023-03-20T01:10:44.108Z,60.89
2023-03-20T01:13:45.728Z,60.85
2023-03-20T01:16:47.535Z,60.85
2023-03-20T01:19:49.356Z,61.02
2023-03-20T01:22:51.071Z,60.96
2023-03-20T01:25:52.767Z,61.09
2023-03-20T01:28:54.391Z,61.18
2023-03-20T01:31:56.433Z,61.06
2023-03-20T01:35:00.334Z,61.15
2023-03-20T01:38:01.868Z,60.94
2023-03-20T01:41:06.725Z,61.18
2023-03-20T01:44:20.087Z,61.06
2023-03-20T01:47:25.860Z,61.17
2023-03-20T01:50:33.059Z,61.14
2023-03-20T01:53:40.463Z,61.17
2023-03-20T01:56:51.414Z,61.31
2023-03-20T02:00:03.973Z,61.25
2023-03-20T02:03:18.671Z,61.23
2023-03-20T02:06:40.241Z,61.22
2023-03-20T02:09:52.128Z,61.22
2023-03-20T02:13:03.875Z,61.30
2023-03-20T02:16:17.914Z,61.42
2023-03-20T02:19:46.701Z,61.33
2023-03-20T02:23:30.557Z,61.50
2023-03-20T02:26:55.155Z,61.50
2023-03-20T02:30:18.332Z,61.40
2023-03-20T02:33:57.022Z,61.47
2023-03-20T02:37:13.752Z,61.50
2023-03-20T02:40:25.477Z,61.58
2023-03-20T02:43:36.321Z,61.54
2023-03-20T02:47:13.306Z,61.63
2023-03-20T02:50:27.206Z,61.81
2023-03-20T02:54:01.351Z,61.85
2023-03-20T02:57:12.397Z,61.86
2023-03-20T03:00:23.609Z,61.97
2023-03-20T03:03:39.890Z,62.10
2023-03-20T03:06:45.974Z,62.00
2023-03-20T03:09:58.666Z,62.13
2023-03-20T03:13:03.376Z,62.28
2023-03-20T03:16:17.056Z,62.23
2023-03-20T03:19:23.436Z,62.30
2023-03-20T03:22:25.939Z,62.41
2023-03-20T03:25:33.025Z,62.23
2023-03-20T03:28:40.674Z,62.26
2023-03-20T03:31:44.728Z,62.28
2023-03-20T03:34:46.819Z,62.36
2023-03-20T03:38:13.066Z,62.42
2023-03-20T03:41:46.270Z,62.29
2023-03-20T03:44:59.840Z,62.34
2023-03-20T03:48:26.456Z,62.49
2023-03-20T03:51:34.899Z,62.58
2023-03-20T03:54:53.915Z,62.48
2023-03-20T03:58:09.979Z,62.45
2023-03-20T04:01:14.415Z,62.55
2023-03-20T04:04:16.981Z,62.80
2023-03-20T04:07:18.762Z,62.79
2023-03-20T04:10:20.635Z,62.72
2023-03-20T04:13:22.224Z,62.72
2023-03-20T04:16:25.726Z,62.86
2023-03-20T04:19:27.976Z,62.77
2023-03-20T04:22:29.581Z,62.84
2023-03-20T04:25:37.755Z,62.82
2023-03-20T04:28:39.520Z,63.03
2023-03-20T04:31:59.924Z,62.95
2023-03-20T04:35:21.705Z,62.81
2023-03-20T04:38:26.390Z,62.89
2023-03-20T04:41:29.399Z,62.82
2023-03-20T04:44:32.664Z,62.90
2023-03-20T04:47:36.611Z,63.11
2023-03-20T04:50:39.280Z,62.81
2023-03-20T04:53:41.023Z,62.62
2023-03-20T04:56:42.656Z,62.68
2023-03-20T04:59:50.442Z,62.59
2023-03-20T05:02:52.701Z,62.48
2023-03-20T05:05:54.236Z,62.43
2023-03-20T05:08:56.178Z,62.27
2023-03-20T05:11:58.129Z,62.29
2023-03-20T05:15:31.943Z,62.04
2023-03-20T05:18:53.713Z,62.05
2023-03-20T05:22:22.838Z,61.83
2023-03-20T05:25:53.715Z,61.82
2023-03-20T05:29:13.722Z,61.79
2023-03-20T05:32:15.580Z,61.56
2023-03-20T05:35:36.234Z,61.71
2023-03-20T05:38:57.053Z,61.88
2023-03-20T05:42:17.192Z,61.46
2023-03-20T05:45:36.919Z,61.46
2023-03-20T05:49:14.305Z,61.58
2023-03-20T05:52:34.261Z,61.57
2023-03-20T05:55:46.192Z,61.65
2023-03-20T05:59:06.492Z,61.64
2023-03-20T06:02:28.260Z,61.63
2023-03-20T06:05:40.165Z,61.79
2023-03-20T06:08:42.623Z,61.95
2023-03-20T06:11:44.133Z,61.94
2023-03-20T06:14:46.590Z,62.03
2023-03-20T06:17:48.403Z,61.87
2023-03-20T06:20:54.736Z,61.83
2023-03-20T06:23:57.998Z,61.80
2023-03-20T06:26:59.695Z,61.96
2023-03-20T06:30:02.123Z,61.77
2023-03-20T06:33:07.887Z,61.82
2023-03-20T06:36:26.372Z,61.64
2023-03-20T06:39:34.567Z,61.58
2023-03-20T06:42:36.544Z,61.57
2023-03-20T06:45:40.656Z,61.47
2023-03-20T06:48:52.106Z,61.57
2023-03-20T06:51:53.984Z,61.38
2023-03-20T06:54:59.846Z,61.26
2023-03-20T06:58:02.457Z,61.28
2023-03-20T07:01:10.971Z,61.24
2023-03-20T07:04:12.738Z,61.51
2023-03-20T07:07:21.567Z,61.45
2023-03-20T07:10:23.635Z,61.24
2023-03-20T07:13:28.299Z,61.33
2023-03-20T07:16:32.015Z,61.14
2023-03-20T07:19:34.214Z,61.56
2023-03-20T07:22:36.696Z,61.26
2023-03-20T07:25:53.222Z,61.43
2023-03-20T07:28:55.204Z,61.51
2023-03-20T07:32:01.124Z,61.56
2023-03-20T07:35:09.340Z,61.65
2023-03-20T07:38:13.487Z,61.67
2023-03-20T07:41:27.986Z,61.77
2023-03-20T07:44:37.592Z,61.76
2023-03-20T07:47:45.631Z,61.89
2023-03-20T07:50:47.395Z,61.87
2023-03-20T07:53:49.389Z,61.90
2023-03-20T07:56:51.007Z,61.80
2023-03-20T07:59:52.640Z,61.68
2023-03-20T08:02:54.266Z,61.58
2023-03-20T08:05:55.907Z,61.57
2023-03-20T08:08:57.697Z,61.41
2023-03-20T08:11:59.224Z,61.56
2023-03-20T08:15:00.682Z,61.39
2023-03-20T08:18:03.170Z,61.32
2023-03-20T08:21:05.058Z,61.22
2023-03-20T08:24:06.930Z,61.16
2023-03-20T08:27:08.532Z,61.32
2023-03-20T08:30:10.728Z,61.09
2023-03-20T08:33:13.447Z,61.03
2023-03-20T08:36:16.105Z,61.26
2023-03-20T08:39:17.681Z,61.09
2023-03-20T08:42:19.400Z,60.94
2023-03-20T08:45:21.493Z,60.71
2023-03-20T08:48:23.410Z,60.50
2023-03-20T08:51:25.369Z,55.56
2023-03-20T08:54:27.153Z,53.27
2023-03-20T08:57:28.732Z,52.25
2023-03-20T09:00:30.534Z,52.71
2023-03-20T09:03:32.083Z,52.12
2023-03-20T09:06:36.959Z,52.75
2023-03-20T09:09:38.487Z,52.87
2023-03-20T09:12:40.071Z,51.99
2023-03-20T09:15:42.259Z,52.11
2023-03-20T09:18:43.811Z,52.88
2023-03-20T09:21:46.190Z,52.46
2023-03-20T09:24:47.718Z,53.15
2023-03-20T09:27:55.368Z,52.69
2023-03-20T09:30:58.235Z,52.06
2023-03-20T09:34:00.131Z,53.10
2023-03-20T09:37:03.209Z,54.11
2023-03-20T09:40:05.645Z,55.19
2023-03-20T09:43:15.649Z,55.44
2023-03-20T09:46:20.465Z,55.58
2023-03-20T09:49:34.130Z,55.66
2023-03-20T09:52:37.620Z,55.88
2023-03-20T09:55:44.309Z,53.86
2023-03-20T09:58:54.619Z,52.55
2023-03-20T10:02:19.940Z,51.54
2023-03-20T10:05:31.181Z,51.36
2023-03-20T10:08:38.244Z,50.31
2023-03-20T10:12:11.046Z,49.83
2023-03-20T10:15:31.913Z,49.69
2023-03-20T10:18:37.620Z,49.79
2023-03-20T10:21:46.481Z,49.72
2023-03-20T10:24:51.271Z,50.38
2023-03-20T10:28:00.431Z,50.96
2023-03-20T10:31:21.323Z,50.96
2023-03-20T10:34:25.852Z,50.49
2023-03-20T10:37:38.469Z,50.80
2023-03-20T10:40:42.107Z,51.23
2023-03-20T10:43:47.283Z,52.04
2023-03-20T10:46:53.519Z,52.37
2023-03-20T10:50:02.398Z,52.82
2023-03-20T10:53:06.622Z,52.99
2023-03-20T10:56:17.223Z,53.19
2023-03-20T10:59:40.311Z,53.19
2023-03-20T11:02:42.346Z,53.68
2023-03-20T11:05:55.484Z,53.54
2023-03-20T11:09:20.912Z,53.55
2023-03-20T11:12:22.412Z,53.52
2023-03-20T11:15:32.484Z,53.75
2023-03-20T11:18:34.452Z,53.96
2023-03-20T11:21:46.404Z,54.01
2023-03-20T11:24:52.717Z,54.10
2023-03-20T11:27:55.222Z,54.41
2023-03-20T11:31:21.478Z,52.19
2023-03-20T11:34:31.013Z,48.77
2023-03-20T11:37:36.264Z,47.80
2023-03-20T11:40:38.645Z,47.39
2023-03-20T11:43:41.678Z,46.99
2023-03-20T11:46:44.393Z,46.98
2023-03-20T11:49:47.884Z,47.29
2023-03-20T11:52:49.440Z,47.13
2023-03-20T11:56:21.040Z,46.96
2023-03-20T11:59:26.209Z,46.96
2023-03-20T12:02:27.822Z,47.49
2023-03-20T12:05:33.430Z,47.47
2023-03-20T12:08:39.519Z,47.28
2023-03-20T12:11:49.353Z,47.29
2023-03-20T12:15:04.747Z,46.86
2023-03-20T12:18:16.419Z,47.11
2023-03-20T12:21:20.979Z,46.05
2023-03-20T12:24:36.797Z,46.21
2023-03-20T12:27:48.647Z,47.48
2023-03-20T12:31:14.099Z,48.61
2023-03-20T12:34:22.128Z,49.17
2023-03-20T12:37:23.765Z,49.67
2023-03-20T12:40:46.077Z,50.12
2023-03-20T12:44:13.502Z,50.33
2023-03-20T12:47:14.910Z,50.74
2023-03-20T12:50:36.475Z,51.03
2023-03-20T12:53:53.131Z,51.35
2023-03-20T12:56:54.538Z,51.61
2023-03-20T13:00:12.709Z,51.82
2023-03-20T13:03:56.932Z,52.08
2023-03-20T13:07:02.880Z,52.14
2023-03-20T13:10:27.837Z,52.20
2023-03-20T13:13:36.496Z,52.29
2023-03-20T13:16:59.668Z,52.39
2023-03-20T13:20:13.709Z,52.42
2023-03-20T13:23:31.528Z,52.53
2023-03-20T13:26:39.608Z,52.66
2023-03-20T13:30:03.431Z,52.48
2023-03-20T13:33:36.098Z,52.66
2023-03-20T13:37:21.935Z,52.70
2023-03-20T13:40:30.322Z,52.75
2023-03-20T13:43:35.265Z,52.87
2023-03-20T13:46:41.489Z,52.90
2023-03-20T13:50:06.079Z,52.95
2023-03-20T13:53:18.026Z,52.86
2023-03-20T13:56:37.650Z,53.13
2023-03-20T13:59:47.786Z,53.05
2023-03-20T14:03:10.964Z,52.96
2023-03-20T14:06:17.128Z,53.01
2023-03-20T14:09:32.440Z,52.97
2023-03-20T14:12:34.115Z,53.07
2023-03-20T14:15:39.415Z,53.13
2023-03-20T14:18:44.086Z,53.15
2023-03-20T14:21:47.821Z,53.08
2023-03-20T14:25:17.330Z,53.24
2023-03-20T14:28:18.752Z,53.34
2023-03-20T14:31:27.019Z,53.33
2023-03-20T14:34:48.259Z,53.50
2023-03-20T14:38:14.757Z,53.46
2023-03-20T14:41:26.829Z,53.58
2023-03-20T14:44:49.976Z,53.68
2023-03-20T14:47:51.414Z,53.73
2023-03-20T14:51:25.080Z,53.60
2023-03-20T14:54:29.490Z,53.76
2023-03-20T14:57:45.481Z,53.80
2023-03-20T15:00:54.659Z,53.90
2023-03-20T15:04:04.525Z,53.87
2023-03-20T15:07:21.354Z,53.75
2023-03-20T15:10:24.671Z,53.64
2023-03-20T15:13:27.517Z,53.64
2023-03-20T15:16:31.779Z,48.42
2023-03-20T15:19:35.687Z,47.23
2023-03-20T15:22:48.517Z,47.36
2023-03-20T15:25:50.794Z,47.22
2023-03-20T15:29:00.680Z,46.79
2023-03-20T15:32:13.808Z,46.81
2023-03-20T15:35:21.543Z,45.49
2023-03-20T15:38:29.839Z,45.65
2023-03-20T15:41:34.464Z,45.61
2023-03-20T15:44:38.239Z,45.29
2023-03-20T15:47:42.487Z,44.91
2023-03-20T15:50:49.459Z,45.59
2023-03-20T15:53:51.065Z,45.60
2023-03-20T15:56:54.582Z,45.74
2023-03-20T15:59:56.302Z,45.74
2023-03-20T16:03:01.209Z,45.27
2023-03-20T16:06:03.157Z,46.19
2023-03-20T16:09:08.037Z,46.76
2023-03-20T16:12:15.962Z,46.87
2023-03-20T16:15:19.168Z,46.61
2023-03-20T16:18:21.855Z,46.49
2023-03-20T16:21:30.264Z,46.63
2023-03-20T16:24:38.247Z,46.06
2023-03-20T16:27:41.277Z,46.09
2023-03-20T16:30:42.875Z,46.30
2023-03-20T16:33:45.482Z,46.29
2023-03-20T16:36:59.075Z,45.87
2023-03-20T16:40:18.607Z,45.82
2023-03-20T16:43:27.800Z,45.62
2023-03-20T16:46:29.401Z,45.76
2023-03-20T16:49:49.295Z,45.97
2023-03-20T16:52:58.565Z,45.81
2023-03-20T16:56:04.715Z,45.51
2023-03-20T16:59:08.860Z,46.30
2023-03-20T17:02:29.627Z,47.25
2023-03-20T17:05:56.618Z,47.93
2023-03-20T17:09:08.128Z,48.31
2023-03-20T17:12:17.584Z,48.68
2023-03-20T17:15:22.550Z,49.37
2023-03-20T17:18:24.074Z,49.57
2023-03-20T17:21:25.831Z,49.80
2023-03-20T17:24:27.410Z,50.34
2023-03-20T17:27:29.594Z,50.25
2023-03-20T17:30:31.192Z,50.42
2023-03-20T17:33:33.648Z,50.99
2023-03-20T17:36:35.725Z,51.86
2023-03-20T17:39:37.382Z,52.40
2023-03-20T17:42:39.654Z,52.78
2023-03-20T17:45:42.119Z,53.28
2023-03-20T17:48:43.922Z,53.73
2023-03-20T17:51:45.836Z,54.24
2023-03-20T17:54:47.399Z,54.70
2023-03-20T17:57:49.252Z,55.05
2023-03-20T18:00:52.555Z,55.39
2023-03-20T18:03:54.399Z,55.92
2023-03-20T18:06:55.966Z,56.09
2023-03-20T18:09:57.454Z,56.51
2023-03-20T18:12:59.538Z,56.71
2023-03-20T18:16:01.075Z,57.10
2023-03-20T18:19:03.465Z,57.16
2023-03-20T18:22:05.173Z,57.35
2023-03-20T18:25:06.875Z,57.38
2023-03-20T18:28:18.364Z,57.50
2023-03-20T18:31:20.884Z,57.32
2023-03-20T18:34:22.547Z,57.46
2023-03-20T18:37:24.021Z,57.18
2023-03-20T18:40:36.989Z,55.28
2023-03-20T18:43:41.969Z,55.83
2023-03-20T18:46:43.653Z,54.93
2023-03-20T18:49:45.269Z,53.36
2023-03-20T18:52:46.839Z,53.78
2023-03-20T18:55:48.332Z,54.48
2023-03-20T18:58:49.875Z,54.95
2023-03-20T19:01:52.815Z,55.39
2023-03-20T19:04:54.352Z,55.45
2023-03-20T19:07:56.464Z,55.58
2023-03-20T19:10:58.023Z,55.77
2023-03-20T19:13:59.573Z,55.67
2023-03-20T19:17:01.071Z,55.59
2023-03-20T19:20:02.653Z,55.70
2023-03-20T19:23:08.099Z,55.80
2023-03-20T19:26:24.439Z,55.64
2023-03-20T19:29:25.996Z,55.78
2023-03-20T19:32:27.516Z,55.89
2023-03-20T19:38:51.785Z,55.88
2023-03-20T19:41:53.272Z,55.71
2023-03-20T19:44:54.762Z,55.82
2023-03-20T19:47:57.458Z,55.76
2023-03-20T19:51:00.124Z,55.89
2023-03-20T19:54:01.793Z,55.90
2023-03-20T19:57:03.446Z,55.87
2023-03-20T20:00:55.662Z,56.02
2023-03-20T20:03:27.327Z,55.89
2023-03-20T20:06:32.253Z,55.80
2023-03-20T20:09:34.362Z,56.11
2023-03-20T20:12:38.838Z,55.91
2023-03-20T20:15:40.316Z,56.11
2023-03-20T20:18:41.837Z,56.25
2023-03-20T20:25:06.771Z,56.31
2023-03-20T20:28:11.051Z,56.54
2023-03-20T20:31:12.582Z,56.79
2023-03-20T20:35:15.218Z,56.70
2023-03-20T20:38:30.803Z,56.72
2023-03-20T20:40:58.223Z,56.72
2023-03-20T20:44:17.151Z,56.77
2023-03-20T20:47:19.440Z,57.05
2023-03-20T20:50:24.503Z,57.17
2023-03-20T20:53:26.012Z,57.36
2023-03-20T20:56:27.484Z,57.56
2023-03-20T20:59:29.505Z,57.47
2023-03-20T21:02:32.102Z,57.60
2023-03-20T21:05:35.727Z,57.87
2023-03-20T21:08:38.264Z,57.67
2023-03-20T21:11:39.830Z,58.00
2023-03-20T21:14:41.617Z,57.82
2023-03-20T21:17:59.448Z,57.87
2023-03-20T21:21:05.867Z,57.83
2023-03-20T21:24:30.452Z,57.84
2023-03-20T21:27:32.657Z,57.86
2023-03-20T21:30:34.218Z,57.99
2023-03-20T21:33:36.590Z,57.96
2023-03-20T21:36:38.093Z,58.12
2023-03-20T21:39:39.570Z,58.00
2023-03-20T21:42:41.199Z,58.09
2023-03-20T21:46:21.068Z,58.02
2023-03-20T21:59:48.640Z,57.94
2023-03-20T22:02:33.604Z,57.99
2023-03-20T22:16:33.188Z,57.85
2023-03-20T22:19:55.998Z,56.32
2023-03-20T22:26:58.246Z,55.14
2023-03-20T22:30:07.105Z,55.02
2023-03-20T22:33:30.481Z,55.34
2023-03-20T22:36:51.990Z,55.88
2023-03-20T22:40:29.213Z,56.41
2023-03-20T22:43:26.537Z,56.23
2023-03-20T22:46:43.844Z,56.30
2023-03-20T22:49:35.705Z,56.35
2023-03-20T22:52:48.816Z,56.31
2023-03-20T22:55:52.295Z,56.28
2023-03-20T22:58:53.807Z,56.14
2023-03-20T23:01:55.269Z,56.21
2023-03-20T23:04:57.790Z,56.59
2023-03-20T23:07:59.398Z,56.32
2023-03-20T23:11:07.182Z,56.30
2023-03-20T23:14:18.261Z,56.36
2023-03-20T23:17:21.950Z,56.22
2023-03-20T23:20:24.006Z,56.47
2023-03-20T23:23:26.196Z,56.33
2023-03-20T23:26:27.732Z,56.38
2023-03-20T23:29:29.310Z,56.35
2023-03-20T23:32:30.853Z,56.42
2023-03-20T23:35:32.643Z,56.57
2023-03-20T23:38:34.364Z,56.33
2023-03-20T23:42:05.023Z,56.34
2023-03-20T23:45:04.483Z,56.36
2023-03-20T23:48:12.807Z,56.50
2023-03-20T23:51:14.301Z,56.63
2023-03-20T23:54:16.172Z,56.42
2023-03-20T23:57:17.658Z,56.47
